Slackwater, Pennsylvania
Current Conditions -  °F | °C
As of 11:01 AM on Wednesday 26 Nov 2014 (Local Time) from KLNS Reporting Station
Light Snow Light Snow  
Wind Chill: 26°   Ceiling: 1400
Heat Index: 33°   Visibility: 1mi
Dew Point: 31°   Wind: 8mph
Humidity: 92%   Direction: 30°NNE
Pressure: 30.06"   Gusts: NA
Location:  39.9904°N, 76.3615°W
Report Text: KLNS 261601Z 03007KT 1SM -SN BR FEW004 SCT008 OVC014 01/M01 A3006 RMK AO2 P0002 T00061006
Loading
Personal Weather Stations






























Interactive Weather Map New forecast layout! Learn more

10-Day Weather Forecast

Advertisements
Track Severe Weather on mobile